Time;durP1;ratioP1;P1;durP2;ratioP2;P2;SDS_P1;SDS_P2;PMS_P1;PMS_P2;Temp;Humidity;BMP_temperature;BMP_pressure;BME280_temperature;BME280_humidity;BME280_pressure;Samples;Min_cycle;Max_cycle;Signal;HPM_P1;HPM_P2
2022/11/23 00:01:21;;;;;;;4.90;1.53;;;7.30;99.90;;;;;;5054777;28;20205;-60
2022/11/23 00:03:50;;;;;;;6.50;1.13;;;7.30;99.90;;;;;;5054458;28;20280;-60
2022/11/23 00:06:17;;;;;;;9.13;1.30;;;7.30;99.90;;;;;;5054319;28;20213;-59
2022/11/23 00:08:45;;;;;;;6.83;1.30;;;7.30;99.90;;;;;;5054552;28;20230;-59
2022/11/23 00:11:12;;;;;;;8.23;1.57;;;7.30;99.90;;;;;;5054606;28;20206;-60
2022/11/23 00:13:39;;;;;;;4.13;1.40;;;7.30;99.90;;;;;;5054203;28;20279;-59
2022/11/23 00:16:07;;;;;;;7.33;1.50;;;7.30;99.90;;;;;;5054118;28;20687;-59
2022/11/23 00:18:35;;;;;;;2.23;1.03;;;7.30;99.90;;;;;;5054320;28;20206;-59
2022/11/23 00:21:06;;;;;;;5.23;1.10;;;7.40;99.90;;;;;;5054115;28;20202;-60
2022/11/23 00:23:33;;;;;;;5.63;1.53;;;7.40;99.90;;;;;;5054389;28;20226;-57
2022/11/23 00:25:59;;;;;;;4.53;1.20;;;7.50;99.90;;;;;;5045955;28;20205;-59
2022/11/23 00:28:26;;;;;;;5.00;1.20;;;7.50;99.90;;;;;;5054072;28;20241;-59
2022/11/23 00:30:53;;;;;;;7.47;1.20;;;7.50;99.90;;;;;;5054129;28;20611;-60
2022/11/23 00:33:19;;;;;;;6.07;1.70;;;7.50;99.90;;;;;;5054077;28;20214;-60
2022/11/23 00:35:47;;;;;;;5.03;1.60;;;7.50;99.90;;;;;;5053949;28;20209;-59
2022/11/23 00:38:14;;;;;;;5.20;1.20;;;7.50;99.90;;;;;;5053943;28;20206;-60
2022/11/23 00:40:41;;;;;;;3.20;0.97;;;7.60;99.90;;;;;;5054084;28;20202;-61
2022/11/23 00:43:08;;;;;;;4.80;1.20;;;7.60;99.90;;;;;;5053894;28;20255;-60
2022/11/23 00:45:34;;;;;;;4.53;1.20;;;7.60;99.90;;;;;;5053879;28;20217;-60
2022/11/23 00:48:01;;;;;;;5.30;1.07;;;7.70;99.90;;;;;;5053357;28;20715;-60
2022/11/23 00:50:28;;;;;;;4.47;1.33;;;7.70;99.90;;;;;;5053815;28;20228;-60
2022/11/23 00:52:56;;;;;;;3.67;0.90;;;7.70;99.90;;;;;;5053808;28;20209;-60
2022/11/23 00:55:22;;;;;;;5.23;1.07;;;7.70;99.90;;;;;;5053722;28;20221;-60
2022/11/23 00:57:49;;;;;;;3.60;1.43;;;7.70;99.90;;;;;;5053443;28;20217;-60
2022/11/23 01:00:17;;;;;;;2.80;1.20;;;7.70;99.90;;;;;;5053517;28;20224;-58
2022/11/23 01:02:43;;;;;;;9.57;1.40;;;7.70;99.90;;;;;;5053349;28;20214;-59
2022/11/23 01:05:10;;;;;;;4.57;0.80;;;7.70;99.90;;;;;;5053570;28;20230;-60
2022/11/23 01:07:36;;;;;;;6.37;1.13;;;7.80;99.90;;;;;;5053234;28;20222;-61
2022/11/23 01:10:07;;;;;;;4.07;1.10;;;7.70;99.90;;;;;;5053132;28;20210;-59
2022/11/23 01:12:33;;;;;;;5.57;1.20;;;7.80;99.90;;;;;;5053346;28;20225;-61
2022/11/23 01:15:00;;;;;;;3.87;1.20;;;7.80;99.90;;;;;;5053071;28;20291;-60
2022/11/23 01:17:27;;;;;;;3.17;0.80;;;7.80;99.90;;;;;;5052932;28;20201;-60
2022/11/23 01:19:54;;;;;;;5.13;1.23;;;7.80;99.90;;;;;;5053653;28;20201;-61
2022/11/23 01:22:20;;;;;;;5.47;1.23;;;7.80;99.90;;;;;;5053360;28;20201;-60
2022/11/23 01:24:47;;;;;;;2.83;0.90;;;7.80;99.90;;;;;;5053000;28;20226;-60
2022/11/23 01:27:15;;;;;;;3.40;0.97;;;7.80;99.90;;;;;;5052831;28;20229;-60
2022/11/23 01:29:42;;;;;;;4.53;1.33;;;7.90;99.90;;;;;;5052724;28;20209;-60
2022/11/23 01:32:08;;;;;;;4.07;0.90;;;7.90;99.90;;;;;;5053144;28;20210;-58
2022/11/23 01:34:35;;;;;;;1.20;0.80;;;7.80;99.90;;;;;;5052323;28;20225;-61
2022/11/23 01:37:02;;;;;;;7.53;1.00;;;7.80;99.90;;;;;;5051889;28;20300;-60
2022/11/23 01:39:29;;;;;;;4.90;1.60;;;7.80;99.90;;;;;;5052727;28;20206;-60
2022/11/23 01:41:55;;;;;;;2.23;0.93;;;7.80;99.90;;;;;;5052678;28;20693;-59
2022/11/23 01:44:29;;;;;;;5.43;1.67;;;7.80;99.90;;;;;;5052457;28;20775;-60
2022/11/23 01:46:58;;;;;;;3.00;1.07;;;7.70;99.90;;;;;;5052630;28;20247;-59
2022/11/23 01:49:27;;;;;;;6.43;1.23;;;7.70;99.90;;;;;;5052749;28;20198;-60
2022/11/23 01:51:57;;;;;;;3.50;1.13;;;7.70;99.90;;;;;;5052547;28;20213;-61
2022/11/23 01:54:28;;;;;;;5.47;1.63;;;7.70;99.90;;;;;;5052331;28;20213;-59
2022/11/23 01:57:00;;;;;;;3.53;1.27;;;7.70;99.90;;;;;;5051987;28;20206;-60
2022/11/23 01:59:30;;;;;;;3.37;1.10;;;7.70;99.90;;;;;;5052668;28;20632;-59
2022/11/23 02:01:56;;;;;;;4.90;1.30;;;7.60;99.90;;;;;;5052285;28;20773;-57
2022/11/23 02:04:27;;;;;;;3.10;1.30;;;7.70;99.90;;;;;;5052085;28;20256;-57
2022/11/23 02:06:56;;;;;;;5.40;1.20;;;7.70;99.90;;;;;;5051479;28;20569;-56
2022/11/23 02:09:23;;;;;;;4.00;1.50;;;7.70;99.90;;;;;;5052032;28;20279;-60
2022/11/23 02:11:51;;;;;;;3.80;1.10;;;7.70;99.90;;;;;;5052323;28;20205;-58
2022/11/23 02:14:18;;;;;;;2.57;1.40;;;7.70;99.90;;;;;;5051769;28;20230;-58
2022/11/23 02:16:46;;;;;;;6.43;1.13;;;7.70;99.90;;;;;;5051917;28;20205;-57
2022/11/23 02:19:24;;;;;;;2.87;1.10;;;7.70;99.90;;;;;;5052120;28;20355;-59
2022/11/23 02:21:52;;;;;;;2.67;1.10;;;7.70;99.90;;;;;;5051910;28;20235;-58
2022/11/23 02:24:26;;;;;;;4.30;1.50;;;7.80;99.90;;;;;;5051967;28;20232;-59
2022/11/23 02:26:55;;;;;;;3.37;1.83;;;7.80;99.90;;;;;;5051915;28;20201;-55
2022/11/23 02:29:24;;;;;;;5.50;1.40;;;7.80;99.90;;;;;;5051690;28;20230;-55
2022/11/23 02:31:51;;;;;;;3.10;1.20;;;7.80;99.90;;;;;;5052074;28;20206;-54
2022/11/23 02:34:18;;;;;;;2.57;1.20;;;7.80;99.90;;;;;;5051934;28;20232;-57
2022/11/23 02:36:47;;;;;;;5.67;1.53;;;7.90;99.90;;;;;;5051660;28;20212;-56
2022/11/23 02:39:17;;;;;;;6.70;1.10;;;7.90;99.90;;;;;;5051776;28;20206;-58
2022/11/23 02:41:46;;;;;;;5.33;1.27;;;7.90;99.90;;;;;;5051796;28;20767;-57
2022/11/23 02:44:31;;;;;;;9.03;1.37;;;7.90;99.90;;;;;;5051571;28;20229;-57
2022/11/23 02:46:58;;;;;;;3.97;1.30;;;7.90;99.90;;;;;;5051607;28;20340;-56
2022/11/23 02:49:25;;;;;;;6.83;1.40;;;7.90;99.90;;;;;;5051823;28;20229;-58
2022/11/23 02:51:52;;;;;;;4.50;1.33;;;7.90;99.90;;;;;;5051687;28;20231;-59
2022/11/23 02:54:19;;;;;;;5.87;1.20;;;8.00;99.90;;;;;;5051787;28;20267;-57
2022/11/23 02:56:45;;;;;;;2.43;1.10;;;8.00;99.90;;;;;;5051397;28;20271;-59
2022/11/23 02:59:12;;;;;;;3.70;1.27;;;8.00;99.90;;;;;;5051444;28;20267;-59
2022/11/23 03:01:40;;;;;;;5.50;1.13;;;8.00;99.90;;;;;;5051865;28;20216;-58
2022/11/23 03:04:07;;;;;;;3.90;1.03;;;8.00;99.90;;;;;;5051753;28;20276;-55
2022/11/23 03:06:34;;;;;;;7.10;1.10;;;8.00;99.90;;;;;;5051359;28;20251;-59
2022/11/23 03:09:00;;;;;;;4.20;1.23;;;8.00;99.90;;;;;;5051453;28;20244;-57
2022/11/23 03:11:27;;;;;;;2.83;1.13;;;8.00;99.90;;;;;;5051477;28;20205;-55
2022/11/23 03:13:54;;;;;;;1.43;0.90;;;8.00;99.90;;;;;;5051080;28;20238;-58
2022/11/23 03:16:21;;;;;;;8.57;1.93;;;8.00;99.90;;;;;;5051416;28;20637;-59
2022/11/23 03:18:48;;;;;;;7.73;1.90;;;8.00;99.90;;;;;;5053954;28;20198;-58
2022/11/23 03:21:15;;;;;;;4.20;1.03;;;8.00;99.90;;;;;;5055434;28;20206;-58
2022/11/23 03:23:42;;;;;;;1.83;0.93;;;8.00;99.90;;;;;;5055224;28;20263;-58
2022/11/23 03:26:09;;;;;;;3.70;0.93;;;8.00;99.90;;;;;;5055031;28;20214;-59
2022/11/23 03:28:35;;;;;;;4.90;1.17;;;8.00;99.90;;;;;;5055131;28;20229;-60
2022/11/23 03:31:03;;;;;;;3.27;1.13;;;8.00;99.90;;;;;;5055447;28;20213;-59
2022/11/23 03:33:29;;;;;;;3.77;1.47;;;7.80;99.90;;;;;;5055173;28;20230;-59
2022/11/23 03:35:57;;;;;;;2.37;1.20;;;7.80;99.90;;;;;;5054934;28;20232;-60
2022/11/23 03:38:24;;;;;;;3.97;1.00;;;7.80;99.90;;;;;;5054675;28;20589;-60
2022/11/23 03:40:51;;;;;;;4.00;1.30;;;7.70;99.90;;;;;;5055054;28;20554;-57
2022/11/23 03:43:18;;;;;;;4.20;1.00;;;7.70;99.90;;;;;;5054661;28;20201;-59
2022/11/23 03:45:45;;;;;;;3.27;1.00;;;7.70;99.90;;;;;;5055176;28;20206;-58
2022/11/23 03:48:11;;;;;;;6.30;1.60;;;7.60;99.90;;;;;;5054783;28;20271;-60
2022/11/23 03:50:38;;;;;;;4.53;1.47;;;7.50;99.90;;;;;;5054903;28;20202;-59
2022/11/23 03:53:07;;;;;;;5.27;1.57;;;7.50;99.90;;;;;;5054691;28;20668;-60
2022/11/23 03:55:33;;;;;;;3.37;1.23;;;7.50;99.90;;;;;;5054708;28;20656;-60
2022/11/23 03:58:00;;;;;;;6.30;1.70;;;7.50;99.90;;;;;;5054310;28;20209;-61
2022/11/23 04:00:28;;;;;;;10.73;1.67;;;7.60;99.90;;;;;;5054912;28;20870;-59
2022/11/23 04:02:55;;;;;;;6.57;2.20;;;7.50;99.90;;;;;;5054577;28;20232;-59
2022/11/23 04:05:22;;;;;;;6.70;2.00;;;7.50;99.90;;;;;;5054513;28;20229;-61
2022/11/23 04:07:49;;;;;;;5.93;1.70;;;7.50;99.90;;;;;;5054094;28;20255;-60
2022/11/23 04:10:19;;;;;;;3.33;1.60;;;7.50;99.90;;;;;;5054411;28;20668;-60
2022/11/23 04:12:49;;;;;;;5.20;1.67;;;7.50;99.90;;;;;;5054265;28;20217;-60
2022/11/23 04:15:16;;;;;;;4.97;1.53;;;7.50;99.90;;;;;;5054374;28;20291;-58
2022/11/23 04:17:43;;;;;;;8.53;1.70;;;7.50;99.90;;;;;;5054217;28;20224;-60
2022/11/23 04:20:10;;;;;;;4.60;2.03;;;7.50;99.90;;;;;;5054286;28;20259;-59
2022/11/23 04:22:37;;;;;;;4.77;1.80;;;7.40;99.90;;;;;;5054182;28;20210;-60
2022/11/23 04:25:04;;;;;;;6.13;1.83;;;7.40;99.90;;;;;;5054059;28;20291;-60
2022/11/23 04:27:32;;;;;;;2.13;1.40;;;7.40;99.90;;;;;;5053719;28;20205;-59
2022/11/23 04:29:59;;;;;;;5.20;1.83;;;7.40;99.90;;;;;;5053483;28;20628;-60
2022/11/23 04:32:26;;;;;;;4.73;1.97;;;7.40;99.90;;;;;;5054289;28;20205;-60
2022/11/23 04:34:52;;;;;;;4.40;1.60;;;7.40;99.90;;;;;;5053786;28;20221;-57
2022/11/23 04:37:19;;;;;;;4.77;1.80;;;7.40;99.90;;;;;;5053747;28;20209;-59
2022/11/23 04:39:45;;;;;;;6.27;2.00;;;7.40;99.90;;;;;;5053941;28;20276;-60
2022/11/23 04:42:12;;;;;;;4.63;1.80;;;7.40;99.90;;;;;;5054096;28;20672;-59
2022/11/23 04:44:40;;;;;;;4.23;1.57;;;7.40;99.90;;;;;;5053679;28;20283;-61
2022/11/23 04:47:07;;;;;;;4.83;1.77;;;7.40;99.90;;;;;;5053520;28;20205;-59
2022/11/23 04:49:34;;;;;;;8.93;2.20;;;7.40;99.90;;;;;;5054061;28;20226;-59
2022/11/23 04:52:00;;;;;;;2.80;1.73;;;7.50;99.90;;;;;;5053952;28;20209;-59
2022/11/23 04:54:27;;;;;;;2.90;1.47;;;7.50;99.90;;;;;;5053736;28;20220;-61
2022/11/23 04:56:55;;;;;;;8.70;2.57;;;7.50;99.90;;;;;;5053390;28;20259;-60
2022/11/23 04:59:21;;;;;;;7.23;3.17;;;7.50;99.90;;;;;;5053377;28;20664;-59
2022/11/23 05:01:51;;;;;;;5.30;1.67;;;7.50;99.90;;;;;;5053607;28;20585;-60
2022/11/23 05:04:17;;;;;;;4.23;1.80;;;7.50;99.90;;;;;;5053231;28;20237;-60
2022/11/23 05:06:44;;;;;;;3.67;1.80;;;7.40;99.90;;;;;;5053655;28;20210;-60
2022/11/23 05:09:11;;;;;;;3.90;1.63;;;7.40;99.90;;;;;;5053211;28;20247;-61
2022/11/23 05:11:38;;;;;;;3.13;2.10;;;7.40;99.90;;;;;;5053378;28;20636;-60
2022/11/23 05:14:04;;;;;;;3.90;1.70;;;7.40;99.90;;;;;;5053254;28;20234;-60
2022/11/23 05:16:31;;;;;;;4.27;1.70;;;7.40;99.90;;;;;;5053023;28;20769;-60
2022/11/23 05:18:59;;;;;;;5.33;1.87;;;7.40;99.90;;;;;;5053132;28;20672;-60
2022/11/23 05:21:25;;;;;;;7.90;1.60;;;7.40;99.90;;;;;;5052931;28;20206;-60
2022/11/23 05:23:52;;;;;;;9.00;2.83;;;7.40;99.90;;;;;;5053055;28;20582;-61
2022/11/23 05:26:19;;;;;;;6.23;2.17;;;7.40;99.90;;;;;;5052724;28;20626;-60
2022/11/23 05:28:46;;;;;;;6.37;2.10;;;7.40;99.90;;;;;;5052910;28;20595;-60
2022/11/23 05:31:13;;;;;;;5.63;1.80;;;7.40;99.90;;;;;;5053067;28;20623;-61
2022/11/23 05:33:40;;;;;;;5.23;2.13;;;7.40;99.90;;;;;;5052833;28;20237;-58
2022/11/23 05:36:12;;;;;;;8.50;1.70;;;7.40;99.90;;;;;;5051328;28;20301;-60
2022/11/23 05:38:39;;;;;;;6.67;2.13;;;7.40;99.90;;;;;;5052931;28;20208;-60
2022/11/23 05:41:06;;;;;;;5.67;1.87;;;7.40;99.90;;;;;;5051983;28;20214;-59
2022/11/23 05:43:32;;;;;;;8.20;2.00;;;7.40;99.90;;;;;;5052860;28;20332;-61
2022/11/23 05:46:00;;;;;;;6.17;1.73;;;7.40;99.90;;;;;;5052256;28;20221;-59
2022/11/23 05:48:26;;;;;;;7.73;1.70;;;7.40;99.90;;;;;;5052809;28;20210;-59
2022/11/23 05:50:53;;;;;;;10.07;1.80;;;7.40;99.90;;;;;;5052425;28;20259;-59
2022/11/23 05:53:22;;;;;;;4.97;1.57;;;7.40;99.90;;;;;;5050907;28;20214;-60
2022/11/23 05:55:48;;;;;;;7.97;2.03;;;7.50;99.90;;;;;;5050939;28;20284;-60
2022/11/23 05:58:15;;;;;;;8.70;1.97;;;7.50;99.90;;;;;;5051903;28;20275;-57
2022/11/23 06:00:42;;;;;;;8.03;1.93;;;7.50;99.90;;;;;;5051997;28;20213;-56
2022/11/23 06:03:08;;;;;;;5.97;1.80;;;7.50;99.90;;;;;;5052124;28;20571;-57
2022/11/23 06:05:35;;;;;;;4.10;1.60;;;7.50;99.90;;;;;;5052179;28;20676;-59
2022/11/23 06:08:02;;;;;;;5.30;1.50;;;7.50;99.90;;;;;;5051570;28;20672;-59
2022/11/23 06:10:30;;;;;;;10.27;1.87;;;7.50;99.90;;;;;;5052104;28;20229;-54
2022/11/23 06:13:05;;;;;;;7.63;1.70;;;7.50;99.90;;;;;;5051432;28;20213;-57
2022/11/23 06:15:31;;;;;;;5.27;1.40;;;7.50;99.90;;;;;;5052210;28;20205;-57
2022/11/23 06:18:02;;;;;;;4.47;1.47;;;7.50;99.90;;;;;;5051247;28;20703;-58
2022/11/23 06:20:29;;;;;;;7.30;1.90;;;7.50;99.90;;;;;;5051994;28;20201;-57
2022/11/23 06:22:56;;;;;;;4.17;1.60;;;7.50;99.90;;;;;;5051146;28;20193;-53
2022/11/23 06:25:23;;;;;;;6.37;2.03;;;7.50;99.90;;;;;;5051443;28;20222;-57
2022/11/23 06:27:55;;;;;;;8.63;1.43;;;7.40;99.90;;;;;;5050610;28;20218;-60
2022/11/23 06:30:22;;;;;;;6.83;1.87;;;7.40;99.90;;;;;;5051540;28;20635;-56
2022/11/23 06:32:49;;;;;;;8.73;1.70;;;7.40;99.90;;;;;;5051607;28;20248;-59
2022/11/23 06:35:16;;;;;;;7.83;1.60;;;7.40;99.90;;;;;;5051367;28;20230;-54
2022/11/23 06:37:43;;;;;;;5.50;1.80;;;7.40;99.90;;;;;;5051126;28;20255;-60
2022/11/23 06:40:11;;;;;;;4.67;1.73;;;7.40;99.90;;;;;;5050972;28;20209;-59
2022/11/23 06:42:37;;;;;;;6.07;2.00;;;7.40;99.90;;;;;;5051489;28;20216;-57
2022/11/23 06:45:07;;;;;;;5.83;1.70;;;7.40;99.90;;;;;;5051200;28;20222;-60
2022/11/23 06:47:34;;;;;;;5.67;1.60;;;7.40;99.90;;;;;;5051308;28;20205;-61
2022/11/23 06:50:01;;;;;;;4.83;2.03;;;7.40;99.90;;;;;;5051284;28;20225;-57
2022/11/23 06:52:27;;;;;;;6.40;1.93;;;7.40;99.90;;;;;;5054590;28;20259;-53
2022/11/23 06:54:54;;;;;;;5.77;2.10;;;7.40;99.90;;;;;;5057077;28;20236;-58
2022/11/23 06:57:21;;;;;;;12.10;2.10;;;7.40;99.90;;;;;;5058043;28;20248;-56
2022/11/23 06:59:47;;;;;;;7.97;2.27;;;7.40;99.90;;;;;;5057307;28;20243;-60
2022/11/23 07:02:16;;;;;;;7.67;2.33;;;7.40;99.90;;;;;;5058193;28;20205;-57
2022/11/23 07:04:42;;;;;;;7.43;2.17;;;7.50;99.90;;;;;;5057841;28;20221;-59
2022/11/23 07:07:09;;;;;;;7.13;2.23;;;7.50;99.90;;;;;;5057394;28;20296;-56
2022/11/23 07:09:36;;;;;;;6.40;1.63;;;7.50;99.90;;;;;;5058006;28;20231;-55
2022/11/23 07:12:03;;;;;;;8.17;1.90;;;7.40;99.90;;;;;;5057799;28;20236;-58
2022/11/23 07:14:30;;;;;;;5.67;1.80;;;7.40;99.90;;;;;;5057785;28;20251;-58
2022/11/23 07:16:57;;;;;;;4.47;1.60;;;7.50;99.90;;;;;;5057324;28;20205;-60
2022/11/23 07:19:25;;;;;;;4.23;1.60;;;7.40;99.90;;;;;;5057788;28;20206;-60
2022/11/23 07:21:51;;;;;;;8.10;1.90;;;7.40;99.90;;;;;;5057306;28;20205;-60
2022/11/23 07:24:18;;;;;;;4.57;1.60;;;7.40;99.90;;;;;;5051825;28;20643;-60
2022/11/23 07:26:45;;;;;;;8.30;2.47;;;7.40;99.90;;;;;;5052157;28;20259;-60
2022/11/23 07:29:11;;;;;;;8.63;1.90;;;7.40;99.90;;;;;;5056946;28;20217;-60
2022/11/23 07:31:38;;;;;;;5.90;1.37;;;7.40;99.90;;;;;;5057120;28;20198;-57
2022/11/23 07:34:05;;;;;;;4.20;1.30;;;7.40;99.90;;;;;;5056776;28;20229;-61
2022/11/23 07:36:33;;;;;;;10.83;2.10;;;7.50;99.90;;;;;;5057019;28;20214;-60
2022/11/23 07:39:00;;;;;;;2.90;1.20;;;7.50;99.90;;;;;;5057115;28;20271;-62
2022/11/23 07:41:27;;;;;;;8.13;1.40;;;7.50;99.90;;;;;;5057290;28;20393;-59
2022/11/23 07:43:54;;;;;;;6.43;1.40;;;7.60;99.90;;;;;;5056531;28;20330;-59
2022/11/23 07:46:21;;;;;;;5.40;1.30;;;7.60;99.90;;;;;;5056909;28;20236;-58
2022/11/23 07:48:48;;;;;;;6.10;1.53;;;7.60;99.90;;;;;;5057039;28;20263;-60
2022/11/23 07:51:15;;;;;;;5.13;1.40;;;7.60;99.90;;;;;;5057358;28;20277;-58
2022/11/23 07:53:43;;;;;;;7.30;2.33;;;7.60;99.90;;;;;;5057289;28;20236;-60
2022/11/23 07:56:09;;;;;;;2.57;1.10;;;7.70;99.90;;;;;;5056011;28;20718;-59
2022/11/23 07:58:36;;;;;;;4.70;1.30;;;7.70;99.90;;;;;;5057255;28;20232;-58
2022/11/23 08:01:03;;;;;;;3.87;1.37;;;7.70;99.90;;;;;;5056850;28;20212;-59
2022/11/23 08:03:29;;;;;;;7.87;1.63;;;7.70;99.90;;;;;;5054883;28;20229;-61
2022/11/23 08:05:56;;;;;;;8.97;1.50;;;7.80;99.90;;;;;;5052989;28;20852;-62
2022/11/23 08:08:23;;;;;;;8.30;1.60;;;7.90;99.90;;;;;;5054166;28;20201;-60
2022/11/23 08:10:51;;;;;;;5.47;1.43;;;7.90;99.90;;;;;;5053897;28;20236;-62
2022/11/23 08:13:18;;;;;;;6.77;1.33;;;7.90;99.90;;;;;;5053367;28;20217;-60
2022/11/23 08:15:45;;;;;;;6.03;1.43;;;7.90;99.90;;;;;;5053447;28;20214;-61
2022/11/23 08:18:12;;;;;;;8.00;1.97;;;8.00;99.90;;;;;;5053460;28;20213;-60
2022/11/23 08:20:39;;;;;;;5.90;1.73;;;8.10;99.90;;;;;;5053779;28;20206;-60
2022/11/23 08:23:06;;;;;;;6.37;2.17;;;8.10;99.90;;;;;;5053208;28;20641;-61
2022/11/23 08:25:32;;;;;;;8.20;1.83;;;8.10;99.90;;;;;;5051515;28;20738;-60
2022/11/23 08:28:02;;;;;;;5.33;1.53;;;8.10;99.90;;;;;;5049191;28;20252;-60
2022/11/23 08:30:31;;;;;;;4.00;1.30;;;8.10;99.90;;;;;;5049978;28;20224;-60
2022/11/23 08:32:58;;;;;;;6.83;1.33;;;8.20;99.90;;;;;;5053763;28;20213;-61
2022/11/23 08:35:24;;;;;;;5.40;1.47;;;8.20;99.90;;;;;;5052448;28;20225;-61
2022/11/23 08:37:51;;;;;;;7.13;1.47;;;8.20;99.90;;;;;;5053392;28;20652;-61
2022/11/23 08:40:18;;;;;;;3.47;1.33;;;8.30;99.90;;;;;;5052652;28;20576;-62
2022/11/23 08:42:46;;;;;;;5.43;1.37;;;8.30;99.10;;;;;;5053418;28;20256;-62
2022/11/23 08:45:14;;;;;;;4.90;1.40;;;8.40;98.40;;;;;;5052751;28;20229;-61
2022/11/23 08:47:41;;;;;;;8.40;1.47;;;8.40;79.90;;;;;;5053518;28;20279;-61
2022/11/23 08:50:08;;;;;;;5.50;1.50;;;8.40;75.00;;;;;;5053145;28;20228;-60
2022/11/23 08:52:35;;;;;;;7.77;1.80;;;8.40;60.80;;;;;;5052848;28;20257;-61
2022/11/23 08:55:02;;;;;;;6.23;1.50;;;8.40;68.10;;;;;;5052964;28;20275;-59
2022/11/23 08:57:29;;;;;;;3.67;1.20;;;8.40;75.00;;;;;;5052405;28;20615;-55
2022/11/23 08:59:55;;;;;;;4.70;1.00;;;8.50;58.00;;;;;;5053048;28;20206;-60
2022/11/23 09:02:23;;;;;;;7.97;1.47;;;8.60;38.00;;;;;;5052852;28;20217;-60
2022/11/23 09:04:50;;;;;;;8.43;1.57;;;8.60;44.20;;;;;;5051677;28;20287;-60
2022/11/23 09:07:17;;;;;;;7.77;1.50;;;8.70;38.20;;;;;;5052152;28;20198;-60
2022/11/23 09:09:43;;;;;;;9.93;1.53;;;8.70;16.70;;;;;;5052437;28;20229;-60
2022/11/23 09:12:10;;;;;;;6.17;1.80;;;8.80;12.20;;;;;;5052545;28;20704;-62
2022/11/23 09:14:37;;;;;;;8.37;1.30;;;8.80;8.00;;;;;;5051585;28;20957;-61
2022/11/23 09:17:04;;;;;;;6.00;1.73;;;8.90;8.40;;;;;;5051187;28;20210;-61
2022/11/23 09:19:32;;;;;;;9.23;1.43;;;8.90;1.00;;;;;;5051862;28;20222;-62
2022/11/23 09:21:59;;;;;;;4.30;1.20;;;8.90;1.00;;;;;;5052700;28;20210;-61
2022/11/23 09:24:26;;;;;;;5.60;1.50;;;8.90;1.00;;;;;;5051812;28;20219;-61
2022/11/23 09:26:53;;;;;;;11.40;1.77;;;9.00;1.00;;;;;;5052156;28;20269;-61
2022/11/23 09:29:20;;;;;;;6.50;1.33;;;9.00;1.00;;;;;;5052047;28;20213;-61
2022/11/23 09:31:46;;;;;;;7.00;1.67;;;9.10;1.00;;;;;;5052546;28;20221;-62
2022/11/23 09:34:13;;;;;;;6.63;1.80;;;9.10;1.00;;;;;;5052122;28;20235;-61
2022/11/23 09:36:41;;;;;;;12.83;1.43;;;9.10;1.00;;;;;;5051620;28;20233;-61
2022/11/23 09:39:08;;;;;;;7.33;1.50;;;9.10;1.00;;;;;;5052026;28;20214;-61
2022/11/23 09:42:05;;;;;;;11.80;1.90;;;9.10;1.00;;;;;;5051587;28;20215;-61
2022/11/23 09:44:45;;;;;;;5.17;1.10;;;9.10;1.00;;;;;;5018394;28;20230;-59
2022/11/23 09:47:28;;;;;;;7.13;1.60;;;9.10;1.00;;;;;;5051548;28;20210;-60
2022/11/23 09:50:02;;;;;;;4.67;1.50;;;9.10;1.00;;;;;;5051893;28;20232;-60
2022/11/23 09:52:31;;;;;;;7.07;1.60;;;9.20;1.00;;;;;;5051412;28;20666;-61
2022/11/23 09:55:04;;;;;;;3.73;1.57;;;9.20;1.00;;;;;;5051320;28;20217;-61
2022/11/23 09:57:34;;;;;;;7.10;1.50;;;9.30;1.00;;;;;;5051122;28;20216;-61
2022/11/23 10:00:04;;;;;;;8.63;1.87;;;9.40;1.00;;;;;;5051776;28;20260;-61
2022/11/23 10:02:33;;;;;;;12.07;1.90;;;9.40;1.00;;;;;;5051712;28;20219;-60
2022/11/23 10:05:03;;;;;;;7.03;1.90;;;9.40;1.00;;;;;;5051644;28;20222;-61
2022/11/23 10:07:45;;;;;;;7.53;1.63;;;9.40;1.00;;;;;;5039555;28;20214;-57
2022/11/23 10:10:26;;;;;;;5.70;1.57;;;9.40;1.00;;;;;;5044969;28;20279;-60
2022/11/23 10:13:01;;;;;;;5.03;1.30;;;9.50;1.00;;;;;;5051661;28;20282;-61
2022/11/23 10:15:32;;;;;;;5.87;1.47;;;9.40;1.00;;;;;;5050821;28;20288;-61
2022/11/23 10:18:19;;;;;;;7.00;1.60;;;9.30;1.00;;;;;;5051455;28;20208;-61
2022/11/23 10:20:55;;;;;;;7.03;1.60;;;9.30;1.00;;;;;;5051193;28;20227;-61
2022/11/23 10:23:39;;;;;;;9.20;2.03;;;9.40;1.00;;;;;;5051526;28;20212;-61
2022/11/23 10:26:12;;;;;;;8.37;1.77;;;9.40;1.00;;;;;;5043142;28;20198;-58
2022/11/23 10:28:38;;;;;;;10.50;1.70;;;9.40;1.00;;;;;;5051478;28;20249;-60
2022/11/23 10:31:13;;;;;;;8.83;1.77;;;9.50;1.00;;;;;;5050815;28;20263;-60
2022/11/23 10:33:47;;;;;;;7.17;1.33;;;9.50;1.00;;;;;;5051130;28;20323;-60
2022/11/23 10:36:15;;;;;;;8.73;2.07;;;9.60;99.90;;;;;;5050688;28;20250;-59
2022/11/23 10:38:43;;;;;;;5.97;1.90;;;9.60;1.00;;;;;;5051517;28;20211;-60
2022/11/23 10:41:11;;;;;;;7.07;1.60;;;9.50;99.90;;;;;;5051272;28;20292;-60
2022/11/23 10:43:43;;;;;;;5.93;1.20;;;9.40;99.90;;;;;;5050708;28;20232;-62
2022/11/23 10:46:25;;;;;;;8.87;1.63;;;9.50;1.00;;;;;;5050760;28;20289;-61
2022/11/23 10:48:52;;;;;;;8.60;1.87;;;9.60;1.00;;;;;;5050797;28;20215;-61
2022/11/23 10:51:28;;;;;;;5.30;1.73;;;9.60;99.90;;;;;;5051191;28;20229;-62
2022/11/23 10:53:59;;;;;;;6.47;1.57;;;9.50;99.90;;;;;;5050612;28;20302;-59
2022/11/23 10:56:26;;;;;;;8.13;1.67;;;9.50;99.90;;;;;;5050518;28;20261;-63
2022/11/23 10:58:53;;;;;;;6.37;1.70;;;9.50;99.90;;;;;;5050589;28;20611;-59
2022/11/23 11:01:23;;;;;;;9.60;1.70;;;9.50;99.90;;;;;;5050969;28;20273;-60
2022/11/23 11:03:51;;;;;;;5.77;1.50;;;9.50;99.90;;;;;;5050705;28;20656;-59
2022/11/23 11:06:25;;;;;;;6.50;1.60;;;9.50;99.90;;;;;;5050473;28;20295;-59
2022/11/23 11:08:54;;;;;;;3.87;1.90;;;9.60;99.90;;;;;;5050984;28;20217;-60
2022/11/23 11:11:31;;;;;;;10.07;2.10;;;9.60;99.90;;;;;;5050782;28;20260;-60
2022/11/23 11:14:04;;;;;;;10.50;1.80;;;9.50;99.90;;;;;;5050789;28;20235;-60
2022/11/23 11:16:32;;;;;;;4.77;1.40;;;9.50;99.90;;;;;;5050100;28;20231;-62
2022/11/23 11:19:00;;;;;;;6.47;1.70;;;9.50;99.90;;;;;;5050948;28;20216;-60
2022/11/23 11:21:33;;;;;;;5.40;1.33;;;9.60;1.00;;;;;;5049977;28;20729;-61
2022/11/23 11:24:02;;;;;;;8.43;1.70;;;9.60;1.00;;;;;;5050887;28;20761;-60
2022/11/23 11:26:32;;;;;;;9.27;1.60;;;9.60;1.00;;;;;;5050116;28;20283;-59
2022/11/23 11:29:01;;;;;;;5.93;1.63;;;9.60;1.00;;;;;;5030804;28;20583;-60
2022/11/23 11:31:45;;;;;;;5.23;1.50;;;9.70;66.00;;;;;;5030460;28;20229;-60
2022/11/23 11:34:19;;;;;;;7.03;1.80;;;9.70;1.00;;;;;;5031189;28;20229;-60
2022/11/23 11:36:51;;;;;;;7.77;1.83;;;9.80;99.90;;;;;;5030283;28;20742;-60
2022/11/23 11:39:25;;;;;;;9.07;2.00;;;9.80;1.00;;;;;;5031414;28;20212;-61
2022/11/23 11:41:55;;;;;;;5.53;1.67;;;9.70;1.00;;;;;;5034528;28;20684;-59
2022/11/23 11:44:24;;;;;;;6.70;1.70;;;9.70;18.00;;;;;;5046709;28;20220;-59
2022/11/23 11:46:56;;;;;;;8.80;2.20;;;9.70;1.00;;;;;;5053967;28;20274;-59
2022/11/23 11:49:26;;;;;;;6.70;1.40;;;9.70;99.90;;;;;;5054271;28;20338;-61
2022/11/23 11:51:58;;;;;;;3.60;1.73;;;9.70;1.00;;;;;;5054261;28;20221;-59
2022/11/23 11:54:29;;;;;;;6.03;1.90;;;9.70;99.90;;;;;;5053648;28;20230;-58
2022/11/23 11:57:03;;;;;;;7.67;1.73;;;9.70;99.90;;;;;;5053619;28;20232;-59
2022/11/23 11:59:41;;;;;;;7.27;1.87;;;9.80;97.40;;;;;;5053598;28;20207;-60
2022/11/23 12:02:19;;;;;;;8.80;1.97;;;9.80;99.90;;;;;;5054039;28;20200;-62
2022/11/23 12:04:54;;;;;;;10.17;1.93;;;9.80;1.00;;;;;;5053624;28;20223;-62
2022/11/23 12:07:28;;;;;;;10.77;2.37;;;9.80;1.00;;;;;;5053505;28;20671;-64
2022/11/23 12:10:01;;;;;;;10.33;2.40;;;9.70;1.00;;;;;;5054260;28;20303;-65
2022/11/23 12:12:31;;;;;;;6.13;1.90;;;9.80;1.00;;;;;;5053463;28;20286;-63
2022/11/23 12:14:58;;;;;;;11.83;2.07;;;9.70;99.90;;;;;;5053543;28;20234;-64
2022/11/23 12:17:41;;;;;;;7.90;1.90;;;9.70;99.90;;;;;;5053353;28;20646;-64
2022/11/23 12:20:15;;;;;;;8.03;1.77;;;9.70;1.00;;;;;;5054129;28;20217;-63
2022/11/23 12:22:54;;;;;;;6.77;2.50;;;9.90;1.00;;;;;;5053657;28;20229;-59
2022/11/23 12:25:29;;;;;;;5.60;2.10;;;10.00;1.00;;;;;;5053463;28;20251;-60
2022/11/23 12:28:09;;;;;;;6.13;1.80;;;9.90;99.90;;;;;;5052958;28;20296;-60
2022/11/23 12:30:43;;;;;;;5.27;1.70;;;9.70;1.00;;;;;;5053356;28;20221;-54
2022/11/23 12:33:34;;;;;;;7.30;1.80;;;9.70;99.90;;;;;;5051443;28;20205;-60
2022/11/23 12:36:24;;;;;;;5.73;2.13;;;9.90;99.90;;;;;;5049929;28;20212;-60
2022/11/23 12:38:55;;;;;;;7.23;1.67;;;10.00;1.00;;;;;;5053095;28;20206;-60
2022/11/23 12:41:36;;;;;;;6.33;1.80;;;10.00;77.50;;;;;;5053436;28;20255;-59
2022/11/23 12:44:29;;;;;;;6.27;2.50;;;9.80;1.00;;;;;;5045275;28;20223;-60
2022/11/23 12:47:05;;;;;;;7.53;2.33;;;9.90;99.90;;;;;;5052784;28;20216;-59
2022/11/23 12:49:40;;;;;;;7.40;1.70;;;9.80;1.00;;;;;;5052631;28;20211;-59
2022/11/23 12:52:24;;;;;;;5.47;1.73;;;9.70;1.00;;;;;;5053157;28;20576;-59
2022/11/23 12:55:00;;;;;;;5.07;1.67;;;9.80;65.90;;;;;;5052944;28;20225;-59
2022/11/23 12:57:32;;;;;;;6.83;1.93;;;9.90;12.90;;;;;;5052710;28;20204;-57
2022/11/23 13:00:05;;;;;;;6.13;1.90;;;9.80;56.20;;;;;;5052283;28;20206;-57
2022/11/23 13:03:22;;;;;;;5.67;1.50;;;9.90;99.90;;;;;;5052446;28;20190;-59
2022/11/23 13:06:06;;;;;;;7.70;1.87;;;9.90;19.20;;;;;;5046766;28;20205;-58
2022/11/23 13:08:54;;;;;;;5.80;1.60;;;9.90;1.00;;;;;;5052740;28;20267;-60